createdAt,value
2022-12-12T00:00:44.534Z,3.08
2022-12-12T00:03:12.096Z,3.58
2022-12-12T00:05:40.278Z,3.35
2022-12-12T00:08:07.783Z,2.83
2022-12-12T00:10:35.973Z,3.08
2022-12-12T00:13:03.901Z,3.65
2022-12-12T00:15:31.353Z,2.90
2022-12-12T00:17:58.629Z,2.47
2022-12-12T00:20:25.831Z,2.60
2022-12-12T00:22:53.153Z,2.80
2022-12-12T00:25:20.404Z,3.45
2022-12-12T00:27:47.653Z,1.77
2022-12-12T00:30:14.895Z,4.95
2022-12-12T00:32:42.088Z,3.25
2022-12-12T00:35:09.742Z,4.40
2022-12-12T00:37:37.132Z,4.45
2022-12-12T00:40:05.393Z,3.40
2022-12-12T00:42:32.615Z,4.53
2022-12-12T00:44:59.838Z,2.78
2022-12-12T00:47:27.085Z,4.28
2022-12-12T00:49:54.329Z,2.85
2022-12-12T00:52:21.535Z,4.03
2022-12-12T00:54:48.772Z,2.60
2022-12-12T00:57:16.013Z,4.30
2022-12-12T00:59:43.263Z,3.05
2022-12-12T01:02:10.526Z,2.95
2022-12-12T01:04:37.694Z,2.55
2022-12-12T01:07:04.858Z,5.45
2022-12-12T01:09:32.068Z,3.03
2022-12-12T01:11:59.290Z,3.25
2022-12-12T01:14:26.587Z,5.00
2022-12-12T01:16:53.866Z,4.00
2022-12-12T01:19:21.062Z,4.25
2022-12-12T01:21:48.308Z,5.97
2022-12-12T01:24:15.567Z,4.00
2022-12-12T01:26:42.899Z,4.57
2022-12-12T01:29:10.185Z,4.60
2022-12-12T01:31:37.468Z,5.07
2022-12-12T01:34:04.918Z,5.00
2022-12-12T01:36:32.193Z,5.32
2022-12-12T01:39:00.785Z,4.63
2022-12-12T01:41:28.296Z,4.95
2022-12-12T01:43:55.968Z,6.13
2022-12-12T01:46:33.657Z,4.68
2022-12-12T01:49:11.424Z,7.35
2022-12-12T01:51:40.095Z,4.65
2022-12-12T01:54:11.755Z,7.05
2022-12-12T01:56:41.215Z,6.47
2022-12-12T01:59:10.968Z,6.10
2022-12-12T02:01:39.477Z,5.18
2022-12-12T02:04:09.039Z,5.07
2022-12-12T02:06:36.357Z,5.40
2022-12-12T02:09:08.163Z,5.95
2022-12-12T02:11:41.522Z,4.47
2022-12-12T02:14:08.934Z,5.38
2022-12-12T02:16:48.315Z,5.38
2022-12-12T02:19:27.726Z,3.33
2022-12-12T02:22:24.372Z,6.85
2022-12-12T02:25:25.602Z,5.65
2022-12-12T02:28:15.759Z,4.93
2022-12-12T02:31:16.692Z,6.25
2022-12-12T02:33:59.057Z,6.82
2022-12-12T02:36:38.396Z,5.95
2022-12-12T02:39:35.715Z,6.05
2022-12-12T02:42:29.338Z,5.50
2022-12-12T02:45:06.623Z,5.15
2022-12-12T02:47:39.625Z,6.63
2022-12-12T02:50:09.056Z,5.70
2022-12-12T02:52:37.504Z,4.72
2022-12-12T02:55:06.015Z,4.53
2022-12-12T02:57:33.437Z,5.00
2022-12-12T03:00:17.283Z,4.78
2022-12-12T03:02:47.399Z,5.68
2022-12-12T03:05:56.326Z,4.75
2022-12-12T03:08:44.362Z,8.07
2022-12-12T03:11:15.774Z,5.53
2022-12-12T03:13:55.415Z,4.93
2022-12-12T03:16:30.714Z,5.43
2022-12-12T03:19:00.969Z,4.93
2022-12-12T03:21:52.079Z,5.18
2022-12-12T03:24:29.370Z,3.67
2022-12-12T03:27:00.598Z,5.53
2022-12-12T03:29:34.641Z,5.00
2022-12-12T03:32:17.323Z,5.95
2022-12-12T03:34:50.556Z,5.60
2022-12-12T03:37:31.238Z,6.07
2022-12-12T03:40:11.487Z,5.55
2022-12-12T03:42:54.925Z,6.78
2022-12-12T03:45:35.241Z,8.93
2022-12-12T03:48:12.452Z,6.65
2022-12-12T03:51:08.474Z,6.18
2022-12-12T03:54:10.737Z,5.90
2022-12-12T03:56:47.548Z,6.78
2022-12-12T03:59:27.148Z,7.13
2022-12-12T04:02:00.318Z,6.15
2022-12-12T04:04:48.526Z,5.63
2022-12-12T04:07:23.746Z,5.82
2022-12-12T04:10:09.988Z,4.95
2022-12-12T04:13:00.893Z,6.00
2022-12-12T04:15:37.684Z,6.05
2022-12-12T04:18:15.338Z,5.82
2022-12-12T04:21:06.121Z,7.88
2022-12-12T04:23:45.769Z,7.53
2022-12-12T04:26:36.700Z,6.68
2022-12-12T04:29:08.123Z,6.22
2022-12-12T04:31:44.356Z,10.85
2022-12-12T04:34:17.577Z,7.40
2022-12-12T04:36:47.518Z,6.95
2022-12-12T04:39:18.682Z,5.65
2022-12-12T04:41:47.867Z,7.40
2022-12-12T04:44:18.041Z,7.68
2022-12-12T04:46:48.635Z,7.50
2022-12-12T04:49:20.281Z,7.30
2022-12-12T04:51:52.536Z,9.63
2022-12-12T04:54:47.799Z,7.95
2022-12-12T04:57:26.074Z,6.82
2022-12-12T04:59:53.604Z,6.90
2022-12-12T05:02:44.117Z,6.95
2022-12-12T05:05:17.341Z,5.95
2022-12-12T05:07:57.130Z,4.80
2022-12-12T05:10:25.232Z,6.80
2022-12-12T05:17:03.231Z,5.35
2022-12-12T05:20:25.298Z,5.85
2022-12-12T05:23:35.167Z,6.40
2022-12-12T05:27:09.431Z,5.80
2022-12-12T05:38:02.508Z,8.40
2022-12-12T05:41:27.413Z,6.10
2022-12-12T05:44:23.051Z,7.05
2022-12-12T05:48:26.358Z,9.15
2022-12-12T05:50:54.813Z,7.07
2022-12-12T05:53:22.872Z,6.90
2022-12-12T05:55:51.557Z,8.60
2022-12-12T05:58:20.003Z,7.20
2022-12-12T06:00:49.043Z,7.40
2022-12-12T06:03:16.648Z,8.88
2022-12-12T06:05:43.953Z,9.52
2022-12-12T06:08:11.301Z,11.65
2022-12-12T06:10:38.955Z,9.23
2022-12-12T06:13:06.178Z,8.02
2022-12-12T06:15:33.450Z,8.75
2022-12-12T06:18:00.777Z,7.45
2022-12-12T06:20:30.552Z,7.97
2022-12-12T06:22:57.752Z,7.68
2022-12-12T06:25:25.119Z,6.88
2022-12-12T06:27:52.408Z,5.72
2022-12-12T06:30:19.604Z,4.82
2022-12-12T06:32:46.816Z,5.18
2022-12-12T06:35:14.295Z,5.18
2022-12-12T06:37:41.753Z,4.13
2022-12-12T06:40:09.645Z,4.93
2022-12-12T06:42:36.946Z,4.50
2022-12-12T06:45:04.527Z,5.22
2022-12-12T06:47:31.747Z,4.05
2022-12-12T06:49:58.944Z,4.38
2022-12-12T06:52:26.113Z,4.15
2022-12-12T06:54:53.376Z,4.18
2022-12-12T06:57:20.562Z,4.47
2022-12-12T06:59:51.425Z,5.03
2022-12-12T07:02:18.747Z,5.03
2022-12-12T07:04:46.018Z,5.38
2022-12-12T07:07:14.366Z,6.28
2022-12-12T07:09:42.256Z,4.28
2022-12-12T07:12:09.413Z,5.20
2022-12-12T07:14:40.135Z,5.00
2022-12-12T07:17:07.453Z,4.57
2022-12-12T07:19:34.686Z,4.95
2022-12-12T07:22:09.165Z,5.05
2022-12-12T07:24:37.392Z,6.18
2022-12-12T07:27:04.860Z,5.72
2022-12-12T07:29:32.285Z,6.25
2022-12-12T07:31:59.544Z,5.20
2022-12-12T07:34:30.174Z,4.65
2022-12-12T07:37:03.075Z,5.07
2022-12-12T07:39:34.806Z,5.15
2022-12-12T07:42:02.167Z,5.40
2022-12-12T07:44:29.418Z,6.13
2022-12-12T07:46:59.898Z,5.43
2022-12-12T07:49:29.073Z,6.63
2022-12-12T07:51:56.485Z,6.45
2022-12-12T07:54:23.656Z,7.25
2022-12-12T07:56:50.843Z,7.85
2022-12-12T07:59:18.058Z,8.25
2022-12-12T08:01:45.336Z,6.85
2022-12-12T08:04:12.603Z,7.95
2022-12-12T08:06:39.790Z,8.60
2022-12-12T08:09:07.063Z,8.10
2022-12-12T08:11:34.418Z,8.07
2022-12-12T08:14:01.704Z,8.70
2022-12-12T08:16:30.170Z,7.20
2022-12-12T08:18:58.219Z,8.75
2022-12-12T08:21:27.427Z,9.75
2022-12-12T08:24:02.761Z,8.55
2022-12-12T08:26:30.566Z,8.63
2022-12-12T08:28:58.554Z,7.57
2022-12-12T08:31:26.960Z,8.20
2022-12-12T08:33:55.094Z,7.65
2022-12-12T08:36:25.144Z,8.30
2022-12-12T08:38:53.689Z,6.53
2022-12-12T08:41:21.019Z,6.63
2022-12-12T08:43:49.269Z,8.32
2022-12-12T08:46:18.687Z,5.97
2022-12-12T08:48:47.690Z,5.38
2022-12-12T08:51:18.569Z,5.22
2022-12-12T08:53:47.754Z,4.75
2022-12-12T08:56:16.020Z,6.10
2022-12-12T08:58:44.192Z,5.38
2022-12-12T09:01:16.714Z,6.10
2022-12-12T09:03:44.203Z,6.65
2022-12-12T09:06:11.869Z,5.20
2022-12-12T09:08:39.258Z,6.00
2022-12-12T09:11:07.621Z,5.47
2022-12-12T09:13:34.885Z,4.63
2022-12-12T09:16:02.453Z,6.00
2022-12-12T09:18:29.680Z,5.40
2022-12-12T09:20:58.642Z,5.80
2022-12-12T09:23:27.358Z,4.78
2022-12-12T09:25:55.398Z,4.80
2022-12-12T09:28:25.087Z,4.90
2022-12-12T09:30:52.672Z,5.18
2022-12-12T09:33:20.308Z,4.35
2022-12-12T09:35:47.703Z,4.30
2022-12-12T09:38:15.359Z,4.72
2022-12-12T09:41:02.811Z,4.35
2022-12-12T09:43:56.549Z,4.38
2022-12-12T09:46:36.085Z,5.57
2022-12-12T09:49:14.645Z,4.70
2022-12-12T09:51:46.090Z,5.97
2022-12-12T09:54:25.656Z,4.45
2022-12-12T09:57:14.595Z,5.90
2022-12-12T09:59:52.802Z,5.03
2022-12-12T10:02:47.784Z,5.07
2022-12-12T10:08:07.028Z,6.32
2022-12-12T10:10:45.764Z,5.40
2022-12-12T10:13:21.423Z,6.10
2022-12-12T10:15:53.967Z,6.63
2022-12-12T10:18:48.201Z,5.45
2022-12-12T10:21:22.035Z,5.70
2022-12-12T10:23:51.690Z,6.20
2022-12-12T10:26:23.954Z,4.68
2022-12-12T10:28:55.936Z,4.32
2022-12-12T10:31:38.317Z,5.55
2022-12-12T10:34:44.225Z,4.93
2022-12-12T10:37:20.740Z,5.30
2022-12-12T10:40:00.248Z,4.68
2022-12-12T10:42:31.805Z,4.82
2022-12-12T10:45:23.356Z,5.30
2022-12-12T10:47:51.007Z,4.80
2022-12-12T10:50:27.213Z,4.88
2022-12-12T10:52:55.209Z,4.25
2022-12-12T10:55:34.800Z,4.00
2022-12-12T10:58:04.183Z,4.53
2022-12-12T11:00:37.576Z,5.30
2022-12-12T11:03:26.780Z,5.18
2022-12-12T11:05:58.088Z,4.75
2022-12-12T11:08:33.967Z,3.90
2022-12-12T11:11:08.502Z,3.58
2022-12-12T11:14:06.406Z,2.85
2022-12-12T11:16:43.677Z,3.25
2022-12-12T11:19:23.274Z,3.38
2022-12-12T11:21:51.933Z,3.20
2022-12-12T11:24:22.193Z,3.70
2022-12-12T11:26:57.981Z,3.45
2022-12-12T11:29:40.517Z,3.63
2022-12-12T11:32:20.609Z,3.17
2022-12-12T11:34:58.322Z,3.38
2022-12-12T11:37:38.096Z,4.30
2022-12-12T11:40:17.977Z,3.80
2022-12-12T11:42:45.252Z,4.57
2022-12-12T11:45:15.923Z,5.13
2022-12-12T11:47:45.886Z,4.45
2022-12-12T11:50:22.778Z,6.43
2022-12-12T11:52:53.073Z,5.13
2022-12-12T11:55:36.296Z,5.55
2022-12-12T11:58:46.183Z,5.90
2022-12-12T12:01:36.308Z,5.75
2022-12-12T12:04:18.651Z,6.50
2022-12-12T12:07:19.240Z,5.80
2022-12-12T12:09:46.479Z,6.55
2022-12-12T12:12:24.453Z,5.97
2022-12-12T12:15:20.737Z,6.38
2022-12-12T12:18:06.820Z,6.90
2022-12-12T12:21:02.148Z,6.60
2022-12-12T12:23:52.040Z,7.75
2022-12-12T12:26:25.395Z,6.60
2022-12-12T12:29:06.049Z,6.05
2022-12-12T12:31:43.591Z,7.25
2022-12-12T12:34:29.408Z,5.93
2022-12-12T12:37:25.850Z,5.65
2022-12-12T12:39:58.746Z,6.03
2022-12-12T12:42:53.578Z,6.43
2022-12-12T12:45:39.564Z,6.10
2022-12-12T12:48:20.441Z,6.07
2022-12-12T12:50:59.557Z,7.15
2022-12-12T12:53:38.906Z,6.93
2022-12-12T12:56:30.944Z,6.03
2022-12-12T12:59:11.761Z,6.32
2022-12-12T13:01:46.259Z,7.15
2022-12-12T13:04:34.533Z,5.10
2022-12-12T13:07:21.877Z,5.47
2022-12-12T13:09:57.707Z,6.82
2022-12-12T13:12:37.613Z,7.40
2022-12-12T13:15:16.077Z,7.93
2022-12-12T13:17:55.471Z,8.48
2022-12-12T13:20:25.796Z,7.40
2022-12-12T13:23:12.702Z,7.63
2022-12-12T13:25:53.159Z,8.57
2022-12-12T13:28:34.429Z,8.70
2022-12-12T13:31:01.617Z,7.95
2022-12-12T13:33:45.824Z,7.88
2022-12-12T13:36:29.080Z,7.90
2022-12-12T13:38:59.738Z,9.52
2022-12-12T13:41:27.373Z,8.85
2022-12-12T13:44:00.009Z,9.35
2022-12-12T13:46:27.650Z,8.40
2022-12-12T13:49:06.804Z,9.02
2022-12-12T13:51:39.432Z,8.68
2022-12-12T13:54:13.774Z,8.98
2022-12-12T13:56:58.290Z,8.98
2022-12-12T13:59:25.582Z,8.70
2022-12-12T14:01:57.296Z,9.98
2022-12-12T14:04:34.128Z,10.88
2022-12-12T14:07:27.927Z,9.25
2022-12-12T14:09:57.587Z,9.52
2022-12-12T14:12:31.835Z,10.30
2022-12-12T14:15:18.456Z,9.70
2022-12-12T14:17:58.454Z,10.45
2022-12-12T14:20:32.671Z,8.10
2022-12-12T14:22:59.937Z,9.77
2022-12-12T14:25:34.649Z,8.18
2022-12-12T14:28:23.872Z,9.95
2022-12-12T14:31:16.170Z,8.13
2022-12-12T14:34:01.989Z,7.57
2022-12-12T14:36:49.898Z,8.32
2022-12-12T14:39:50.644Z,7.45
2022-12-12T14:43:19.776Z,8.82
2022-12-12T14:45:54.689Z,8.88
2022-12-12T14:48:31.671Z,8.95
2022-12-12T14:51:25.893Z,9.00
2022-12-12T14:53:57.104Z,10.95
2022-12-12T14:56:31.646Z,10.50
2022-12-12T14:59:08.195Z,9.32
2022-12-12T15:01:38.260Z,11.05
2022-12-12T15:04:09.613Z,10.65
2022-12-12T15:06:39.844Z,13.15
2022-12-12T15:09:26.013Z,13.13
2022-12-12T15:11:55.868Z,12.85
2022-12-12T15:14:27.690Z,13.77
2022-12-12T15:17:13.175Z,14.40
2022-12-12T15:19:54.872Z,12.20
2022-12-12T15:22:34.142Z,12.40
2022-12-12T15:25:16.410Z,12.73
2022-12-12T15:27:53.712Z,11.00
2022-12-12T15:30:37.131Z,11.63
2022-12-12T15:33:07.778Z,11.00
2022-12-12T15:35:35.230Z,9.90
2022-12-12T15:38:07.919Z,11.10
2022-12-12T15:40:36.458Z,11.70
2022-12-12T15:43:07.512Z,11.55
2022-12-12T15:45:50.719Z,10.23
2022-12-12T15:48:19.280Z,12.43
2022-12-12T15:50:46.445Z,11.50
2022-12-12T15:53:19.245Z,10.52
2022-12-12T15:56:04.628Z,12.38
2022-12-12T15:58:44.222Z,11.18
2022-12-12T16:01:21.779Z,11.05
2022-12-12T16:03:59.376Z,13.32
2022-12-12T16:06:30.993Z,11.50
2022-12-12T16:09:02.149Z,13.07
2022-12-12T16:11:49.459Z,14.27
2022-12-12T16:14:38.985Z,12.07
2022-12-12T16:17:23.686Z,12.38
2022-12-12T16:20:07.437Z,12.13
2022-12-12T16:22:45.050Z,10.50
2022-12-12T16:25:34.334Z,10.63
2022-12-12T16:28:23.261Z,11.25
2022-12-12T16:31:01.502Z,11.23
2022-12-12T16:33:35.254Z,11.40
2022-12-12T16:36:05.429Z,12.32
2022-12-12T16:38:33.147Z,11.52
2022-12-12T16:41:05.752Z,11.68
2022-12-12T16:43:33.075Z,11.75
2022-12-12T16:46:00.658Z,10.70
2022-12-12T16:48:32.812Z,12.52
2022-12-12T16:51:06.346Z,10.40
2022-12-12T16:53:37.400Z,9.90
2022-12-12T16:56:04.928Z,10.70
2022-12-12T16:58:32.873Z,11.07
2022-12-12T17:01:01.976Z,10.88
2022-12-12T17:03:30.593Z,11.70
2022-12-12T17:05:57.807Z,11.27
2022-12-12T17:08:25.301Z,12.18
2022-12-12T17:11:10.580Z,11.95
2022-12-12T17:16:07.058Z,15.57
2022-12-12T17:18:34.312Z,12.90
2022-12-12T17:21:01.559Z,12.93
2022-12-12T17:23:30.081Z,11.63
2022-12-12T17:26:03.538Z,10.25
2022-12-12T17:28:35.438Z,9.95
2022-12-12T17:31:07.002Z,11.23
2022-12-12T17:33:34.263Z,10.80
2022-12-12T17:36:06.505Z,11.05
2022-12-12T17:38:34.324Z,9.57
2022-12-12T17:41:09.003Z,9.73
2022-12-12T17:43:36.903Z,11.40
2022-12-12T17:46:06.822Z,8.90
2022-12-12T17:48:35.685Z,10.70
2022-12-12T17:51:05.744Z,10.65
2022-12-12T17:53:38.605Z,11.15
2022-12-12T17:56:11.664Z,11.88
2022-12-12T17:58:41.085Z,10.80
2022-12-12T18:01:17.306Z,10.38
2022-12-12T18:03:45.726Z,9.65
2022-12-12T18:06:14.405Z,10.50
2022-12-12T18:08:42.288Z,9.93
2022-12-12T18:11:12.020Z,11.02
2022-12-12T18:13:40.847Z,9.90
2022-12-12T18:16:11.108Z,11.32
2022-12-12T18:18:39.063Z,12.30
2022-12-12T18:21:10.565Z,9.90
2022-12-12T18:23:40.684Z,9.32
2022-12-12T18:26:22.808Z,9.65
2022-12-12T18:28:55.899Z,9.38
2022-12-12T18:31:23.271Z,9.35
2022-12-12T18:33:51.638Z,9.90
2022-12-12T18:36:22.242Z,8.98
2022-12-12T18:38:49.830Z,9.57
2022-12-12T18:41:17.745Z,8.88
2022-12-12T18:43:44.985Z,9.60
2022-12-12T18:46:15.231Z,9.32
2022-12-12T18:48:44.729Z,9.30
2022-12-12T18:51:14.789Z,9.65
2022-12-12T18:53:43.410Z,8.43
2022-12-12T18:56:13.656Z,8.15
2022-12-12T18:58:43.086Z,9.02
2022-12-12T19:01:17.170Z,8.38
2022-12-12T19:03:46.413Z,6.60
2022-12-12T19:06:20.441Z,7.43
2022-12-12T19:08:47.957Z,8.23
2022-12-12T19:11:16.658Z,7.78
2022-12-12T19:13:44.062Z,7.38
2022-12-12T19:16:14.420Z,7.38
2022-12-12T19:18:42.766Z,7.90
2022-12-12T19:21:16.126Z,6.95
2022-12-12T19:23:43.717Z,7.43
2022-12-12T19:26:13.703Z,7.30
2022-12-12T19:28:41.570Z,6.68
2022-12-12T19:31:14.922Z,7.32
2022-12-12T19:33:45.846Z,7.22
2022-12-12T19:36:19.238Z,8.75
2022-12-12T19:38:47.719Z,7.70
2022-12-12T19:41:16.917Z,8.05
2022-12-12T19:43:45.860Z,8.93
2022-12-12T19:46:15.688Z,8.40
2022-12-12T19:48:44.155Z,8.65
2022-12-12T19:51:16.660Z,8.55
2022-12-12T19:53:52.650Z,8.00
2022-12-12T19:56:26.167Z,8.35
2022-12-12T19:58:54.531Z,9.30
2022-12-12T20:01:26.337Z,11.45
2022-12-12T20:04:01.175Z,9.63
2022-12-12T20:06:29.137Z,10.48
2022-12-12T20:08:58.441Z,10.55
2022-12-12T20:11:26.296Z,10.18
2022-12-12T20:13:56.227Z,10.50
2022-12-12T20:16:26.041Z,8.50
2022-12-12T20:18:54.196Z,8.48
2022-12-12T20:21:59.287Z,8.07
2022-12-12T20:24:13.206Z,9.15
2022-12-12T20:26:41.177Z,8.32
2022-12-12T20:29:09.445Z,7.32
2022-12-12T20:31:39.283Z,8.63
2022-12-12T20:34:06.545Z,7.15
2022-12-12T20:36:35.503Z,7.68
2022-12-12T20:39:06.343Z,8.75
2022-12-12T20:41:39.658Z,7.40
2022-12-12T20:44:08.031Z,8.18
2022-12-12T20:46:38.303Z,7.15
2022-12-12T20:49:09.350Z,7.97
2022-12-12T20:54:25.664Z,8.18
2022-12-12T20:56:54.582Z,7.45
2022-12-12T20:59:22.297Z,8.32
2022-12-12T21:01:49.625Z,7.85
2022-12-12T21:04:17.163Z,8.38
2022-12-12T21:06:48.598Z,10.10
2022-12-12T21:09:23.374Z,8.95
2022-12-12T21:11:57.930Z,9.43
2022-12-12T21:14:27.057Z,8.45
2022-12-12T21:16:55.564Z,9.15
2022-12-12T21:19:23.974Z,9.23
2022-12-12T21:21:53.202Z,8.80
2022-12-12T21:24:21.578Z,11.13
2022-12-12T21:26:49.197Z,9.82
2022-12-12T21:29:17.192Z,9.25
2022-12-12T21:31:50.884Z,9.35
2022-12-12T21:34:21.358Z,8.50
2022-12-12T21:36:51.885Z,9.45
2022-12-12T21:39:19.832Z,9.00
2022-12-12T21:41:47.441Z,8.90
2022-12-12T21:44:14.822Z,8.95
2022-12-12T21:46:44.233Z,8.75
2022-12-12T21:49:26.447Z,10.65
2022-12-12T21:51:57.610Z,9.20
2022-12-12T21:54:25.632Z,9.27
2022-12-12T21:56:53.353Z,9.35
2022-12-12T21:59:24.732Z,9.52
2022-12-12T22:01:55.119Z,9.88
2022-12-12T22:04:22.448Z,8.43
2022-12-12T22:06:49.925Z,8.40
2022-12-12T22:09:17.108Z,8.73
2022-12-12T22:11:49.748Z,8.43
2022-12-12T22:14:20.597Z,9.23
2022-12-12T22:16:48.375Z,8.80
2022-12-12T22:19:16.803Z,7.97
2022-12-12T22:21:48.575Z,9.63
2022-12-12T22:24:17.156Z,9.63
2022-12-12T22:26:47.369Z,9.20
2022-12-12T22:29:17.205Z,9.32
2022-12-12T22:31:45.373Z,10.05
2022-12-12T22:34:16.157Z,9.05
2022-12-12T22:36:45.003Z,10.55
2022-12-12T22:39:23.592Z,10.48
2022-12-12T22:41:51.161Z,9.90
2022-12-12T22:44:21.434Z,9.63
2022-12-12T22:46:50.403Z,10.05
2022-12-12T22:49:20.588Z,10.15
2022-12-12T22:51:49.077Z,8.95
2022-12-12T22:54:16.447Z,9.68
2022-12-12T22:56:44.777Z,9.27
2022-12-12T22:59:13.712Z,8.98
2022-12-12T23:01:41.998Z,8.13
2022-12-12T23:04:14.511Z,8.27
2022-12-12T23:06:43.108Z,9.07
2022-12-12T23:09:19.932Z,9.82
2022-12-12T23:11:47.487Z,9.48
2022-12-12T23:14:18.384Z,8.75
2022-12-12T23:16:46.214Z,9.75
2022-12-12T23:19:16.406Z,8.80
2022-12-12T23:21:44.566Z,10.30
2022-12-12T23:24:12.166Z,8.85
2022-12-12T23:26:39.824Z,10.60
2022-12-12T23:29:12.740Z,8.75
2022-12-12T23:31:40.233Z,8.85
2022-12-12T23:34:13.457Z,9.45
2022-12-12T23:36:40.886Z,9.45
2022-12-12T23:39:08.544Z,9.52
2022-12-12T23:41:36.845Z,9.20
2022-12-12T23:44:05.584Z,9.95
2022-12-12T23:46:33.872Z,8.75
2022-12-12T23:49:06.163Z,8.98
2022-12-12T23:51:45.818Z,8.85
2022-12-12T23:54:15.791Z,8.85
2022-12-12T23:56:43.512Z,8.48
2022-12-12T23:59:17.122Z,10.25
